NCAR-RAP Real-Time Weather Data

Output produced by METARs form (12 August 2020  18:45 UTC)
found at http://weather.rap.ucar.edu/surface/
 
KJFK 121837Z 19011KT 10SM TS SCT037CB SCT130 BKN250 28/24 A3002 RMK AO2 LTG DSNT NE AND E TSB34 OCNL LTGIC N-NE TS N-NE MOV E TCU DSNT W-NW T02780239 $
KJFK 121803Z 16007KT 10SM VCTS SCT037CB SCT110 BKN250 29/24 A3002 RMK AO2 LTG DSNT NE AND E CB NE MOV E CB DSNT SW T02890244 $
KJFK 121751Z 18009KT 10SM SCT037CB SCT110 BKN250 29/24 A3001 RMK AO2 LTG DSNT NE SLP163 CB NE AND DSNT SW MOV E TCU DSNT W 60000 T02940244 10300 20250 56009 $
KJFK 121651Z 16008KT 10SM SCT033TCU SCT110 SCT230 29/25 A3002 RMK AO2 RAB01E10 TSB25E49 SLP165 CB DSNT SW MOV E TCU NE AND NW VCSH NW P0000 T02940250 $
KJFK 121625Z 18007KT 9SM TS FEW015 SCT028CB SCT110 BKN250 29/25 A3003 RMK AO2 RAB01E10 TSB25 OCNL LTGICCG NW TS NW MOV STNRY CB DSNT SW MOV E VCSH NW P0000 T02890250 $
KJFK 121551Z 18006KT 9SM FEW012 SCT025TCU SCT095 BKN250 28/25 A3003 RMK AO2 SLP169 TCU NW VCSH NW T02830250 $
KJFK 121451Z 18005KT 7SM FEW009 SCT025 BKN095 BKN250 27/25 A3004 RMK AO2 SLP171 T02720250 53008 $
KJFK 121417Z 17005KT 7SM SCT009 SCT022 SCT095 BKN250 27/24 A3003 RMK AO2 T02670244 $
KJFK 121351Z 18006KT 9SM OVC008 26/24 A3003 RMK AO2 SLP168 T02560239 $
KJFK 121251Z 20006KT 8SM BKN006 BKN095 BKN250 26/24 A3002 RMK AO2 SLP166 BKN006 V SCT T02560239
KJFK 121244Z 19007KT 8SM SCT006 BKN095 BKN250 25/24 A3002 RMK AO2 T02500239
KJFK 121151Z 18005KT 7SM FEW010 SCT095 SCT140 BKN250 26/24 A3001 RMK AO2 SLP163 60050 70050 T02610244 10261 20233 53008
KJFK 121051Z 20006KT 8SM FEW012 FEW045 SCT080 BKN140 BKN250 25/24 A3000 RMK AO2 TSE0953 SLP159 CB DSNT SE MOV SE T02500244
KJFK 120955Z 17005KT 8SM SCT012 SCT042 BKN080 BKN250 24/23 A3000 RMK AO2 TSE53 OCNL LTGIC DSNT SE CB DSNT SE MOV SE T02390233
KJFK 120951Z 16004KT 7SM TS SCT012 SCT042CB BKN090 BKN250 24/23 A3000 RMK AO2 RAB07E39 TSB07 SLP157 OCNL LTGIC E-SE TS E-SE MOV SE P0050 T02440233
KJFK 120937Z 17004KT 7SM -TSRA BKN012 BKN042CB OVC090 24/24 A3000 RMK AO2 RAB07 TSB07 OCNL LTGICCA OHD-SE TS OHD-SE MOV SE P0050 T02440239
KJFK 120913Z 25003KT 10SM +TSRA FEW013 SCT033 OVC065 24/24 A2999 RMK AO2 RAB07 TSB07 P0007 T02440239
KJFK 120851Z 19005KT 10SM FEW013 SCT033 OVC065 24/23 A2999 RMK AO2 LTG DSNT NE SLP155 T02440233 53003
KJFK 120751Z 20005KT 10SM SCT095 BKN210 24/23 A2998 RMK AO2 SLP152 T02390228
KJFK 120651Z 19005KT 10SM FEW005 SCT250 24/23 A2998 RMK AO2 SLP151 T02390228
KJFK 120551Z 19004KT 9SM FEW005 SCT250 23/23 A2998 RMK AO2 SLP152 T02330228 10250 20233 51005
KJFK 120451Z 19007KT 8SM FEW004 BKN250 23/23 A2997 RMK AO2 SLP149 T02330228 402830222
KJFK 120439Z 19007KT 7SM SCT004 BKN250 24/23 A2997 RMK AO2 T02390228
KJFK 120351Z 20010KT 1/4SM R04R/P6000FT BR OVC003 24/23 A2997 RMK AO2 SFC VIS 4 SLP149 T02390233
KJFK 120251Z 20013KT 1/4SM R04R/P6000FT BR OVC002 24/23 A2997 RMK AO2 SFC VIS 3 SLP147 T02390233 51010
KJFK 120151Z 19013KT 1SM R04R/P6000FT BR BKN002 24/23 A2996 RMK AO2 SFC VIS 5 SLP145 T02390233
KJFK 120103Z 18014G21KT 1SM R04R/P6000FT BR BKN002 24/23 A2995 RMK AO2 SFC VIS 4 VIS LWR E T02390233
KJFK 120051Z 18015KT 7SM SCT004 SCT250 24/23 A2995 RMK AO2 SLP141 SCT004 V BKN T02440233
KJFK 112351Z 18015G23KT 7SM FEW006 FEW150 SCT250 25/24 A2993 RMK AO2 SLP136 T02500239 10283 20250 56004
KJFK 112251Z 18015KT 10SM FEW006 FEW150 SCT250 26/23 A2994 RMK AO2 SLP137 T02560233
KJFK 112151Z 18016KT 10SM FEW006 FEW055 SCT160 SCT250 27/23 A2994 RMK AO2 SLP138 T02670233
KJFK 112051Z 17012KT 10SM FEW006 FEW055 SCT150 BKN250 27/23 A2995 RMK AO2 SLP141 TCU DSNT NW T02670233 56013
KJFK 111951Z 18016G23KT 10SM FEW006 SCT044 SCT080 SCT250 27/23 A2996 RMK AO2 PK WND 18026/1926 LTG DSNT W SLP144 CB DSNT SW TCU DSNT W AND DSNT NW T02670233
KJFK 111935Z 18018G26KT 10SM FEW006 SCT044 SCT080 SCT250 28/23 A2997 RMK AO2 PK WND 18026/1926 LTG DSNT SW CB DSNT SW TCU DSNT NW T02780233
KJFK 111851Z 16012KT 10SM BKN007 BKN035 BKN100 BKN250 28/24 A2996 RMK AO2 LTG DSNT SW SLP146 BKN007 V SCT TCU DSNT SW-W T02780239
KJFK 111751Z 16009KT 3SM BKN005 BKN035 BKN250 27/24 A2999 RMK AO2 SFC VIS 8 SLP154 CIG 003V007 TCU DSNT NE T02670239 10278 20244 58010
KJFK 111726Z 17008KT 3SM BKN005 BKN035 BKN250 27/24 A2999 RMK AO2 SFC VIS 7 CIG 003V007 TCU DSNT NE T02720239
KJFK 111651Z 17010KT 5SM HZ BKN004 BKN035 BKN250 27/23 A3000 RMK AO2 SLP159 CIG 003V005 TCU DSNT N AND DSNT NE T02670233
KJFK 111642Z 16011KT 5SM BR BKN003 BKN035 BKN250 26/23 A3000 RMK AO2 TCU DSNT N AND DSNT NE T02560233
KJFK 111551Z 18008KT 9SM VCFG SCT003 SCT032 BKN250 26/23 A3001 RMK AO2 SLP162 TCU DSNT NE AND DSNT NW VCFG SE-S T02610233
KJFK 111501Z 17006KT 8SM VCFG SCT003 SCT027 BKN250 26/23 A3001 RMK AO2 TCU DSNT N VCFG S T02560233
KJFK 111451Z 17006KT 1/2SM R04R/P6000FT BR BKN003 BKN250 25/23 A3002 RMK AO2 SFC VIS 6 SLP164 VIS SE-SW 2 1/2 T02500228 53009
KJFK 111442Z 18008KT 1/2SM R04R/P6000FT BR FEW000 BKN003 BKN250 25/23 A3002 RMK AO2 SFC VIS 4 BR FEW000 VIS SE-SW 1 1/2 T02500228
KJFK 111427Z 18008KT 6SM HZ SCT003 BKN012 BKN250 26/23 A3001 RMK AO2 VIS SE-S 2 1/2 T02560228
KJFK 111351Z 19006KT 8SM VCFG SCT010 BKN250 27/23 A3000 RMK AO2 SLP160 VCFG SE-S T02670233
KJFK 111320Z 20003KT 8SM OVC010 26/23 A3001 RMK AO2 T02560228
KJFK 111251Z 18006KT 9SM BKN008 BKN250 25/23 A3000 RMK AO2 SLP158 T02500233
KJFK 111151Z 18009KT 9SM BKN007 BKN250 24/23 A2999 RMK AO2 SLP155 BKN007 V SCT T02440228 10250 20239 53007
KJFK 111140Z 18010KT 9SM SCT007 BKN250 24/23 A2999 RMK AO2 T02440228
KJFK 111051Z 18006KT 9SM FEW011 BKN250 24/23 A2998 RMK AO2 SLP152 T02440233
KJFK 110951Z 21004KT 9SM FEW011 SCT250 24/23 A2997 RMK AO2 SLP149 T02390233 $
KJFK 110851Z 22004KT 10SM FEW012 FEW250 24/23 A2997 RMK AO2 SLP148 T02390228 55003 $
KJFK 110751Z 21005KT 10SM FEW012 FEW250 24/23 A2996 RMK AO2 SLP146 T02390228 $
KJFK 110651Z 19006KT 10SM FEW250 24/23 A2997 RMK AO2 SLP147 T02390228
KJFK 110551Z 21007KT 10SM FEW250 25/23 A2998 RMK AO2 SLP151 T02500233 10256 20244 58002
KJFK 110451Z 21006KT 10SM FEW250 24/23 A2998 RMK AO2 SLP152 T02440228 403060233
KJFK 110351Z 19008KT 10SM FEW250 24/23 A2998 RMK AO2 SLP153 T02440228
KJFK 110251Z 20006KT 10SM FEW250 24/23 A2998 RMK AO2 SLP153 T02440228 51008
KJFK 110151Z 20007KT 10SM FEW060 FEW250 25/23 A2998 RMK AO2 SLP153 T02500233
KJFK 110051Z 19012KT 10SM FEW060 FEW250 25/23 A2998 RMK AO2 SLP150 T02500233
KJFK 102351Z 18014KT 10SM FEW055 FEW250 26/23 A2996 RMK AO2 SLP145 T02560228 10306 20256 56006
KJFK 102251Z 18016KT 10SM FEW055 FEW250 27/23 A2996 RMK AO2 SLP146 TCU DSNT N T02670228
KJFK 102151Z 19017KT 10SM FEW055 FEW250 28/23 A2997 RMK AO2 SLP148 TCU DSNT SW AND DSNT NW T02780228
KJFK 102051Z 19016KT 10SM FEW055 FEW250 28/23 A2998 RMK AO2 SLP151 TCU DSNT SW-W T02830233 58016
KJFK 101951Z 19015KT 10SM FEW055 29/24 A3000 RMK AO2 SLP159 TCU DSNT W T02890239
KJFK 101851Z 18011KT 10SM FEW055 30/24 A3001 RMK AO2 SLP162 T03000239